RJSF/FKS METAR and TAF weather

Enter ICAO airport designator
Station Type Date Time Source
RJSF METAR 2019/04/18 11:00 UTC NOAA

RJSF 181100Z 16008KT 9999 FEW040 SCT/// 13/07 Q1013


Station Type Date Time Source
RJSF Decoded METAR 2019/04/18 11:00 UTC NOAA

Fukushima Airport, Japan (RJSF) 37-14N 140-26E 375M
Apr 18, 2019 - 07:00 AM EDT / 2019.04.18 1100 UTC
Wind: from the SSE (160 degrees) at 9 MPH (8 KT):0
Visibility: greater than 7 mile(s):0
Sky conditions: partly cloudy
Temperature: 55 F (13 C)
Dew Point: 44 F (7 C)
Relative Humidity: 66%
Pressure (altimeter): 29.91 in. Hg (1013 hPa)
ob: RJSF 181100Z 16008KT 9999 FEW040 SCT/// 13/07 Q1013
cycle: 11

Station Type Date Time Source
RJSF TAF 2019/04/18 12:33 UTC NOAA

TAF RJSF 181105Z 1812/1918 16006KT 9999 FEW030
TEMPO 1818/1822 4000 -SHRA BR FEW003 BKN008 BKN015
BECMG 1822/1900 32015KT

Example: see airport list